createdAt,value
2019-02-08T00:00:19.965Z,3.31
2019-02-08T00:01:25.721Z,3.20
2019-02-08T00:02:31.683Z,3.11
2019-02-08T00:03:37.243Z,3.12
2019-02-08T00:04:43.209Z,3.15
2019-02-08T00:05:49.683Z,3.18
2019-02-08T00:06:55.819Z,3.01
2019-02-08T00:08:01.757Z,3.03
2019-02-08T00:09:07.527Z,3.07
2019-02-08T00:10:13.717Z,3.04
2019-02-08T00:11:19.730Z,2.75
2019-02-08T00:12:25.431Z,2.59
2019-02-08T00:13:30.667Z,2.53
2019-02-08T00:14:36.653Z,2.72
2019-02-08T00:15:41.879Z,2.33
2019-02-08T00:16:47.824Z,2.41
2019-02-08T00:17:53.800Z,2.37
2019-02-08T00:18:59.771Z,2.47
2019-02-08T00:20:05.836Z,2.49
2019-02-08T00:21:11.784Z,2.18
2019-02-08T00:22:17.714Z,1.95
2019-02-08T00:23:26.764Z,1.85
2019-02-08T00:24:29.626Z,1.76
2019-02-08T00:25:35.361Z,1.59
2019-02-08T00:26:40.964Z,1.75
2019-02-08T00:27:46.583Z,1.59
2019-02-08T00:28:52.256Z,1.47
2019-02-08T00:29:57.910Z,1.48
2019-02-08T00:31:03.323Z,1.75
2019-02-08T00:32:09.093Z,1.54
2019-02-08T00:33:15.083Z,1.39
2019-02-08T00:34:21.080Z,1.35
2019-02-08T00:35:26.704Z,1.60
2019-02-08T00:36:32.626Z,1.91
2019-02-08T00:37:38.238Z,1.97
2019-02-08T00:38:44.214Z,1.68
2019-02-08T00:39:50.206Z,1.59
2019-02-08T00:40:55.798Z,1.61
2019-02-08T00:42:01.765Z,1.48
2019-02-08T00:43:07.027Z,1.34
2019-02-08T00:44:12.972Z,1.27
2019-02-08T00:45:18.264Z,1.20
2019-02-08T00:46:24.221Z,1.31
2019-02-08T00:47:30.200Z,1.25
2019-02-08T00:48:36.150Z,1.17
2019-02-08T00:49:42.160Z,1.23
2019-02-08T00:50:48.127Z,1.12
2019-02-08T00:51:54.060Z,1.05
2019-02-08T00:52:59.649Z,1.04
2019-02-08T00:54:04.894Z,1.12
2019-02-08T00:55:10.171Z,1.06
2019-02-08T00:56:16.131Z,1.20
2019-02-08T00:57:22.057Z,1.34
2019-02-08T00:58:27.603Z,1.07
2019-02-08T00:59:33.606Z,1.14
2019-02-08T01:00:38.867Z,1.21
2019-02-08T01:01:44.874Z,1.21
2019-02-08T01:02:50.138Z,1.26
2019-02-08T01:03:56.078Z,1.17
2019-02-08T01:05:02.051Z,1.09
2019-02-08T01:06:07.311Z,1.02
2019-02-08T01:07:14.021Z,1.12
2019-02-08T01:08:19.995Z,1.02
2019-02-08T01:09:27.692Z,1.20
2019-02-08T01:10:33.838Z,1.23
2019-02-08T01:11:39.470Z,1.42
2019-02-08T01:12:45.082Z,1.27
2019-02-08T01:13:50.684Z,1.32
2019-02-08T01:14:56.312Z,1.52
2019-02-08T01:16:02.017Z,1.96
2019-02-08T01:17:07.612Z,2.19
2019-02-08T01:18:13.565Z,2.25
2019-02-08T01:19:19.107Z,2.29
2019-02-08T01:20:24.391Z,2.21
2019-02-08T01:21:30.324Z,2.31
2019-02-08T01:22:36.237Z,2.20
2019-02-08T01:23:42.165Z,2.13
2019-02-08T01:24:48.186Z,2.24
2019-02-08T01:25:54.141Z,2.43
2019-02-08T01:27:00.092Z,2.49
2019-02-08T01:28:05.336Z,2.42
2019-02-08T01:29:10.950Z,2.38
2019-02-08T01:30:16.279Z,2.56
2019-02-08T01:31:21.481Z,2.56
2019-02-08T01:32:27.442Z,2.64
2019-02-08T01:33:33.408Z,2.83
2019-02-08T01:34:39.310Z,3.01
2019-02-08T01:35:45.290Z,2.90
2019-02-08T01:36:51.269Z,2.94
2019-02-08T01:37:56.656Z,2.88
2019-02-08T01:39:02.715Z,2.79
2019-02-08T01:40:18.145Z,2.74
2019-02-08T01:41:24.094Z,2.85
2019-02-08T01:42:30.034Z,2.86
2019-02-08T01:43:35.640Z,2.78
2019-02-08T01:44:41.594Z,2.96
2019-02-08T01:45:47.272Z,3.04
2019-02-08T01:46:52.847Z,3.03
2019-02-08T01:47:58.482Z,3.01
2019-02-08T01:49:03.730Z,3.00
2019-02-08T01:50:09.645Z,2.90
2019-02-08T01:51:15.573Z,2.84
2019-02-08T01:52:21.524Z,2.79
2019-02-08T01:53:27.464Z,2.91
2019-02-08T01:54:33.096Z,2.76
2019-02-08T01:55:39.048Z,2.69
2019-02-08T01:56:44.630Z,2.89
2019-02-08T01:57:49.852Z,2.88
2019-02-08T01:58:55.799Z,3.04
2019-02-08T02:00:01.745Z,3.18
2019-02-08T02:01:07.013Z,3.20
2019-02-08T02:02:11.552Z,3.34
2019-02-08T02:03:16.799Z,3.31
2019-02-08T02:04:22.006Z,3.43
2019-02-08T02:05:27.638Z,3.37
2019-02-08T02:06:33.241Z,3.16
2019-02-08T02:07:38.811Z,3.31
2019-02-08T02:08:44.829Z,3.53
2019-02-08T02:09:51.239Z,3.59
2019-02-08T02:10:56.804Z,3.73
2019-02-08T02:12:02.347Z,3.77
2019-02-08T02:13:08.533Z,3.67
2019-02-08T02:14:14.703Z,3.69
2019-02-08T02:15:20.283Z,3.72
2019-02-08T02:16:26.221Z,3.80
2019-02-08T02:17:32.114Z,3.84
2019-02-08T02:18:38.042Z,3.89
2019-02-08T02:19:43.974Z,3.90
2019-02-08T02:20:49.923Z,3.88
2019-02-08T02:21:55.806Z,3.78
2019-02-08T02:23:01.064Z,3.84
2019-02-08T02:24:06.954Z,3.87
2019-02-08T02:25:12.155Z,3.88
2019-02-08T02:26:18.113Z,3.92
2019-02-08T02:27:24.041Z,3.86
2019-02-08T02:28:29.957Z,3.93
2019-02-08T02:29:35.584Z,3.90
2019-02-08T02:30:40.834Z,3.90
2019-02-08T02:31:46.913Z,3.86
2019-02-08T02:32:52.845Z,3.78
2019-02-08T02:33:59.649Z,3.79
2019-02-08T02:35:05.221Z,3.66
2019-02-08T02:36:11.174Z,3.75
2019-02-08T02:37:17.134Z,3.75
2019-02-08T02:38:22.729Z,3.83
2019-02-08T02:39:28.724Z,3.88
2019-02-08T02:40:34.550Z,3.79
2019-02-08T02:41:40.510Z,3.73
2019-02-08T02:42:46.085Z,3.70
2019-02-08T02:43:51.983Z,3.54
2019-02-08T02:44:57.885Z,3.44
2019-02-08T02:46:03.844Z,3.47
2019-02-08T02:47:09.435Z,3.42
2019-02-08T02:48:15.436Z,3.42
2019-02-08T02:49:21.036Z,3.31
2019-02-08T02:50:26.661Z,3.26
2019-02-08T02:51:32.285Z,3.26
2019-02-08T02:52:38.232Z,3.15
2019-02-08T02:53:44.206Z,3.07
2019-02-08T02:54:49.803Z,3.01
2019-02-08T02:55:55.793Z,3.15
2019-02-08T02:57:01.762Z,3.32
2019-02-08T02:58:07.677Z,3.26
2019-02-08T02:59:13.260Z,3.38
2019-02-08T03:00:24.176Z,3.54
2019-02-08T03:01:29.438Z,3.26
2019-02-08T03:02:35.363Z,3.23
2019-02-08T03:03:40.948Z,3.20
2019-02-08T03:04:46.577Z,3.00
2019-02-08T03:05:52.572Z,2.93
2019-02-08T03:06:58.522Z,2.94
2019-02-08T03:08:03.810Z,2.92
2019-02-08T03:09:09.089Z,2.93
2019-02-08T03:10:16.932Z,2.97
2019-02-08T03:11:22.586Z,2.94
2019-02-08T03:12:28.522Z,3.09
2019-02-08T03:13:34.517Z,2.91
2019-02-08T03:14:40.159Z,3.03
2019-02-08T03:15:45.426Z,2.99
2019-02-08T03:16:52.001Z,3.16
2019-02-08T03:17:58.343Z,3.16
2019-02-08T03:19:03.920Z,3.19
2019-02-08T03:20:10.631Z,3.35
2019-02-08T03:21:16.566Z,3.53
2019-02-08T03:22:22.516Z,3.37
2019-02-08T03:23:28.112Z,3.32
2019-02-08T03:24:34.098Z,3.41
2019-02-08T03:25:39.720Z,3.57
2019-02-08T03:26:45.680Z,3.54
2019-02-08T03:27:50.914Z,3.63
2019-02-08T03:28:56.885Z,3.82
2019-02-08T03:30:02.475Z,3.81
2019-02-08T03:31:08.097Z,3.93
2019-02-08T03:32:14.045Z,3.84
2019-02-08T03:33:19.284Z,3.70
2019-02-08T03:34:24.916Z,3.84
2019-02-08T03:35:30.622Z,3.77
2019-02-08T03:36:36.576Z,3.83
2019-02-08T03:37:43.215Z,3.98
2019-02-08T03:38:49.730Z,3.73
2019-02-08T03:39:55.614Z,3.79
2019-02-08T03:41:01.637Z,3.86
2019-02-08T03:42:07.756Z,3.72
2019-02-08T03:43:13.351Z,3.85
2019-02-08T03:44:18.966Z,3.81
2019-02-08T03:45:23.979Z,3.86
2019-02-08T03:46:29.954Z,3.96
2019-02-08T03:47:35.861Z,3.94
2019-02-08T03:48:41.810Z,3.77
2019-02-08T03:49:47.763Z,3.67
2019-02-08T03:50:53.320Z,3.63
2019-02-08T03:51:59.270Z,3.88
2019-02-08T03:53:04.545Z,3.92
2019-02-08T03:54:10.071Z,3.94
2019-02-08T03:55:15.278Z,3.94
2019-02-08T03:56:21.315Z,3.88
2019-02-08T03:57:27.239Z,3.75
2019-02-08T03:58:33.918Z,3.71
2019-02-08T03:59:39.706Z,3.73
2019-02-08T04:00:46.885Z,3.72
2019-02-08T04:01:52.845Z,3.98
2019-02-08T04:02:58.054Z,3.82
2019-02-08T04:04:11.169Z,3.82
2019-02-08T04:05:16.390Z,3.92
2019-02-08T04:06:22.342Z,3.96
2019-02-08T04:07:28.340Z,4.04
2019-02-08T04:08:34.341Z,4.12
2019-02-08T04:09:39.950Z,4.09
2019-02-08T04:10:45.506Z,4.09
2019-02-08T04:11:50.794Z,4.14
2019-02-08T04:12:56.781Z,4.12
2019-02-08T04:14:02.710Z,4.16
2019-02-08T04:15:07.970Z,4.23
2019-02-08T04:16:13.974Z,4.22
2019-02-08T04:17:19.911Z,4.15
2019-02-08T04:18:25.674Z,4.08
2019-02-08T04:19:32.418Z,4.15
2019-02-08T04:20:38.599Z,4.17
2019-02-08T04:21:44.655Z,4.07
2019-02-08T04:22:49.920Z,4.18
2019-02-08T04:23:55.853Z,4.12
2019-02-08T04:25:01.798Z,4.13
2019-02-08T04:26:07.372Z,4.13
2019-02-08T04:27:12.974Z,3.99
2019-02-08T04:28:18.925Z,4.06
2019-02-08T04:29:24.830Z,4.04
2019-02-08T04:30:30.101Z,4.08
2019-02-08T04:31:36.037Z,4.06
2019-02-08T04:32:41.994Z,3.92
2019-02-08T04:33:47.905Z,3.95
2019-02-08T04:34:53.877Z,3.89
2019-02-08T04:35:59.803Z,3.92
2019-02-08T04:37:05.785Z,3.94
2019-02-08T04:38:11.382Z,3.95
2019-02-08T04:39:17.365Z,3.84
2019-02-08T04:40:24.778Z,3.86
2019-02-08T04:41:31.188Z,3.98
2019-02-08T04:42:36.846Z,4.01
2019-02-08T04:43:42.771Z,4.05
2019-02-08T04:44:48.701Z,3.94
2019-02-08T04:45:54.601Z,4.04
2019-02-08T04:47:00.538Z,4.10
2019-02-08T04:48:06.166Z,3.99
2019-02-08T04:49:12.095Z,3.88
2019-02-08T04:50:22.767Z,3.88
2019-02-08T04:51:28.733Z,3.92
2019-02-08T04:52:34.634Z,3.89
2019-02-08T04:53:40.584Z,3.90
2019-02-08T04:54:46.508Z,3.72
2019-02-08T04:55:52.094Z,3.62
2019-02-08T04:56:58.050Z,3.86
2019-02-08T04:58:03.645Z,3.98
2019-02-08T04:59:09.560Z,3.91
2019-02-08T05:00:29.657Z,3.97
2019-02-08T05:01:36.496Z,3.95
2019-02-08T05:02:42.651Z,4.01
2019-02-08T05:03:48.657Z,4.05
2019-02-08T05:04:54.653Z,4.05
2019-02-08T05:06:00.579Z,3.86
2019-02-08T05:07:05.854Z,3.99
2019-02-08T05:08:11.752Z,4.08
2019-02-08T05:09:17.698Z,4.02
2019-02-08T05:10:22.989Z,3.77
2019-02-08T05:11:29.431Z,3.70
2019-02-08T05:12:35.381Z,3.81
2019-02-08T05:13:41.324Z,3.73
2019-02-08T05:14:46.925Z,3.63
2019-02-08T05:15:52.840Z,3.73
2019-02-08T05:16:58.794Z,3.89
2019-02-08T05:18:04.032Z,3.88
2019-02-08T05:19:09.976Z,3.64
2019-02-08T05:20:17.654Z,3.46
2019-02-08T05:21:23.609Z,3.69
2019-02-08T05:22:30.348Z,3.68
2019-02-08T05:23:36.757Z,3.44
2019-02-08T05:24:46.007Z,3.34
2019-02-08T05:25:48.675Z,3.37
2019-02-08T05:26:54.752Z,3.34
2019-02-08T05:28:00.343Z,3.25
2019-02-08T05:29:05.586Z,3.17
2019-02-08T05:30:21.325Z,3.04
2019-02-08T05:31:27.268Z,3.11
2019-02-08T05:32:33.277Z,3.09
2019-02-08T05:33:39.262Z,3.16
2019-02-08T05:34:45.209Z,3.13
2019-02-08T05:35:51.133Z,3.06
2019-02-08T05:36:56.767Z,3.12
2019-02-08T05:38:02.022Z,3.23
2019-02-08T05:39:07.298Z,3.15
2019-02-08T05:40:12.600Z,2.97
2019-02-08T05:41:18.677Z,2.92
2019-02-08T05:42:24.619Z,2.78
2019-02-08T05:43:31.338Z,2.76
2019-02-08T05:44:37.354Z,2.79
2019-02-08T05:45:43.273Z,3.03
2019-02-08T05:46:49.203Z,3.11
2019-02-08T05:47:54.927Z,3.22
2019-02-08T05:49:00.888Z,3.08
2019-02-08T05:50:08.126Z,3.05
2019-02-08T05:51:14.073Z,2.83
2019-02-08T05:52:20.019Z,2.91
2019-02-08T05:53:25.613Z,2.84
2019-02-08T05:54:31.536Z,2.83
2019-02-08T05:55:37.143Z,2.73
2019-02-08T05:56:43.117Z,3.04
2019-02-08T05:57:48.769Z,3.23
2019-02-08T05:58:54.719Z,3.46
2019-02-08T06:00:00.295Z,3.65
2019-02-08T06:01:05.578Z,3.70
2019-02-08T06:02:11.161Z,3.68
2019-02-08T06:03:16.831Z,3.57
2019-02-08T06:04:22.794Z,3.32
2019-02-08T06:05:28.047Z,3.06
2019-02-08T06:06:34.097Z,3.17
2019-02-08T06:07:39.754Z,3.01
2019-02-08T06:08:45.695Z,3.10
2019-02-08T06:09:51.621Z,3.04
2019-02-08T06:10:57.584Z,2.94
2019-02-08T06:12:03.133Z,3.06
2019-02-08T06:13:08.417Z,3.23
2019-02-08T06:14:13.681Z,3.33
2019-02-08T06:15:22.671Z,3.46
2019-02-08T06:16:28.644Z,3.24
2019-02-08T06:17:34.620Z,3.19
2019-02-08T06:18:40.578Z,3.14
2019-02-08T06:19:46.546Z,3.02
2019-02-08T06:20:52.492Z,2.88
2019-02-08T06:21:58.552Z,3.11
2019-02-08T06:23:03.860Z,3.11
2019-02-08T06:24:09.379Z,3.28
2019-02-08T06:25:14.677Z,3.26
2019-02-08T06:26:20.251Z,3.35
2019-02-08T06:27:25.828Z,3.25
2019-02-08T06:28:31.451Z,3.23
2019-02-08T06:29:37.405Z,3.41
2019-02-08T06:30:43.024Z,3.66
2019-02-08T06:31:48.974Z,3.78
2019-02-08T06:32:54.260Z,3.81
2019-02-08T06:34:00.177Z,3.91
2019-02-08T06:35:05.433Z,4.03
2019-02-08T06:36:11.389Z,3.96
2019-02-08T06:37:17.335Z,3.94
2019-02-08T06:38:23.360Z,3.94
2019-02-08T06:39:29.335Z,3.90
2019-02-08T06:40:38.289Z,3.96
2019-02-08T06:41:44.247Z,4.06
2019-02-08T06:42:49.620Z,4.11
2019-02-08T06:43:55.622Z,4.21
2019-02-08T06:45:01.207Z,4.21
2019-02-08T06:46:06.841Z,4.31
2019-02-08T06:47:12.868Z,4.18
2019-02-08T06:48:18.470Z,4.28
2019-02-08T06:49:23.683Z,4.16
2019-02-08T06:50:28.932Z,4.13
2019-02-08T06:51:34.884Z,4.06
2019-02-08T06:52:40.473Z,4.14
2019-02-08T06:53:46.014Z,4.21
2019-02-08T06:54:51.935Z,4.25
2019-02-08T06:55:57.912Z,4.32
2019-02-08T06:57:04.026Z,4.34
2019-02-08T06:58:15.676Z,4.34
2019-02-08T06:59:21.382Z,4.45
2019-02-08T07:00:28.085Z,4.44
2019-02-08T07:01:33.476Z,4.38
2019-02-08T07:02:40.184Z,4.37
2019-02-08T07:03:45.929Z,4.30
2019-02-08T07:06:26.567Z,4.04
2019-02-08T07:07:33.503Z,4.11
2019-02-08T07:08:50.300Z,4.16
2019-02-08T07:10:01.704Z,4.24
2019-02-08T07:11:11.769Z,4.42
2019-02-08T07:12:21.615Z,4.46
2019-02-08T07:13:28.252Z,4.37
2019-02-08T07:14:44.649Z,4.19
2019-02-08T07:15:50.427Z,4.09
2019-02-08T07:16:58.287Z,4.20
2019-02-08T07:19:57.437Z,4.35
2019-02-08T07:21:26.897Z,4.40
2019-02-08T07:22:34.984Z,4.46
2019-02-08T07:23:43.196Z,4.38
2019-02-08T07:26:39.585Z,4.43
2019-02-08T07:38:33.415Z,4.51
2019-02-08T07:41:15.527Z,4.72
2019-02-08T07:42:20.530Z,4.71
2019-02-08T07:45:01.207Z,4.87
2019-02-08T07:46:08.131Z,4.88
2019-02-08T07:47:16.697Z,4.83
2019-02-08T07:48:27.322Z,4.87
2019-02-08T07:49:37.732Z,4.98
2019-02-08T07:52:18.614Z,4.98
2019-02-08T07:53:23.594Z,4.74
2019-02-08T07:54:30.052Z,4.83
2019-02-08T07:55:35.106Z,4.99
2019-02-08T07:56:55.051Z,4.94
2019-02-08T07:58:01.815Z,5.04
2019-02-08T07:59:06.793Z,5.14
2019-02-08T08:00:17.437Z,5.14
2019-02-08T08:01:24.363Z,5.15
2019-02-08T08:02:47.183Z,5.09
2019-02-08T08:04:20.591Z,5.12
2019-02-08T08:05:31.050Z,5.17
2019-02-08T08:06:49.861Z,5.22
2019-02-08T08:08:00.463Z,5.18
2019-02-08T08:09:08.198Z,5.18
2019-02-08T08:10:14.676Z,5.18
2019-02-08T08:11:20.818Z,5.31
2019-02-08T08:12:30.886Z,5.25
2019-02-08T08:13:38.711Z,5.31
2019-02-08T08:14:49.138Z,5.43
2019-02-08T08:15:59.626Z,5.32
2019-02-08T08:17:19.573Z,5.31
2019-02-08T08:18:25.800Z,5.36
2019-02-08T08:19:36.326Z,5.48
2019-02-08T08:20:41.312Z,5.52
2019-02-08T08:21:48.272Z,5.55
2019-02-08T08:22:53.903Z,5.56
2019-02-08T08:24:04.284Z,5.61
2019-02-08T08:26:51.535Z,5.65
2019-02-08T08:27:58.262Z,5.70
2019-02-08T08:29:04.148Z,5.60
2019-02-08T08:30:27.926Z,5.68
2019-02-08T08:31:47.819Z,5.70
2019-02-08T08:32:53.768Z,5.84
2019-02-08T08:34:10.399Z,5.64
2019-02-08T08:35:22.197Z,5.77
2019-02-08T08:38:31.951Z,5.92
2019-02-08T08:50:35.898Z,6.15
2019-02-08T08:52:09.575Z,6.14
2019-02-08T08:53:53.992Z,6.13
2019-02-08T08:55:17.094Z,6.28
2019-02-08T08:56:24.899Z,6.24
2019-02-08T08:59:23.494Z,6.34
2019-02-08T09:00:35.070Z,6.32
2019-02-08T09:01:41.029Z,6.42
2019-02-08T09:03:02.827Z,6.54
2019-02-08T09:04:11.653Z,6.55
2019-02-08T09:05:29.731Z,6.51
2019-02-08T09:06:55.386Z,6.56
2019-02-08T09:08:08.045Z,6.59
2019-02-08T09:10:57.250Z,6.53
2019-02-08T09:13:47.480Z,6.58
2019-02-08T09:16:42.711Z,6.73
2019-02-08T09:18:06.575Z,6.77
2019-02-08T09:19:20.315Z,6.76
2019-02-08T09:20:38.942Z,6.74
2019-02-08T09:23:22.872Z,6.73
2019-02-08T09:24:37.997Z,6.74
2019-02-08T09:27:47.228Z,6.80
2019-02-08T09:31:03.274Z,6.90
2019-02-08T09:32:13.494Z,6.97
2019-02-08T09:35:14.727Z,7.10
2019-02-08T09:36:47.566Z,7.13
2019-02-08T09:37:57.072Z,7.16
2019-02-08T09:39:21.709Z,7.12
2019-02-08T09:52:50.022Z,7.87
2019-02-08T09:54:01.964Z,7.89
2019-02-08T09:55:30.996Z,7.88
2019-02-08T09:56:52.487Z,7.90
2019-02-08T09:58:14.850Z,7.84
2019-02-08T10:01:14.799Z,7.98
2019-02-08T10:02:37.742Z,8.01
2019-02-08T10:03:48.980Z,7.98
2019-02-08T10:05:06.744Z,7.99
2019-02-08T10:06:33.329Z,7.97
2019-02-08T10:09:37.041Z,8.10
2019-02-08T10:13:05.009Z,8.32
2019-02-08T10:25:15.844Z,7.96
2019-02-08T10:26:46.357Z,7.88
2019-02-08T10:27:53.190Z,7.91
2019-02-08T10:30:44.688Z,8.01
2019-02-08T10:33:32.401Z,8.03
2019-02-08T10:34:50.453Z,7.98
2019-02-08T10:36:15.048Z,7.93
2019-02-08T10:39:18.306Z,7.77
2019-02-08T10:40:43.390Z,7.91
2019-02-08T10:41:57.959Z,8.11
2019-02-08T10:44:50.505Z,8.31
2019-02-08T10:46:01.551Z,8.29
2019-02-08T10:47:13.324Z,8.27
2019-02-08T10:50:31.579Z,8.37
2019-02-08T10:53:31.946Z,8.57
2019-02-08T10:54:41.778Z,8.63
2019-02-08T10:55:47.830Z,8.78
2019-02-08T10:58:51.882Z,9.13
2019-02-08T11:00:16.438Z,9.06
2019-02-08T11:01:33.223Z,9.12
2019-02-08T11:02:51.123Z,9.10
2019-02-08T11:05:51.498Z,8.82
2019-02-08T11:07:16.694Z,8.74
2019-02-08T11:08:27.783Z,8.72
2019-02-08T11:09:41.062Z,8.76
2019-02-08T11:10:55.213Z,8.72
2019-02-08T11:14:03.681Z,8.99
2019-02-08T11:15:30.316Z,9.02
2019-02-08T11:18:40.298Z,8.95
2019-02-08T11:19:59.542Z,9.04
2019-02-08T11:21:04.775Z,8.99
2019-02-08T11:22:11.340Z,9.02
2019-02-08T11:23:17.981Z,9.01
2019-02-08T11:24:23.290Z,8.81
2019-02-08T11:25:28.582Z,8.74
2019-02-08T11:26:34.266Z,8.77
2019-02-08T11:27:40.227Z,8.75
2019-02-08T11:28:46.186Z,8.74
2019-02-08T11:29:52.871Z,8.78
2019-02-08T11:30:58.490Z,8.74
2019-02-08T11:32:04.112Z,8.73
2019-02-08T11:33:09.791Z,8.67
2019-02-08T11:34:15.119Z,8.70
2019-02-08T11:35:21.081Z,8.65
2019-02-08T11:36:26.391Z,8.52
2019-02-08T11:37:32.082Z,8.45
2019-02-08T11:38:37.671Z,8.35
2019-02-08T11:39:43.609Z,8.26
2019-02-08T11:40:48.874Z,8.38
2019-02-08T11:41:54.574Z,8.41
2019-02-08T11:43:00.511Z,8.31
2019-02-08T11:44:05.825Z,8.18
2019-02-08T11:45:11.093Z,8.18
2019-02-08T11:46:16.995Z,8.35
2019-02-08T11:47:23.001Z,8.42
2019-02-08T11:48:28.981Z,8.48
2019-02-08T11:49:34.959Z,8.39
2019-02-08T11:50:40.928Z,8.54
2019-02-08T11:51:47.098Z,8.65
2019-02-08T11:52:53.183Z,8.68
2019-02-08T11:53:58.899Z,8.74
2019-02-08T11:55:04.188Z,8.61
2019-02-08T11:56:09.409Z,8.59
2019-02-08T11:57:15.430Z,8.67
2019-02-08T11:58:21.512Z,8.55
2019-02-08T11:59:27.106Z,8.59
2019-02-08T12:00:32.489Z,8.60
2019-02-08T12:01:37.570Z,8.49
2019-02-08T12:02:43.191Z,8.55
2019-02-08T12:03:49.196Z,8.59
2019-02-08T12:04:55.200Z,8.59
2019-02-08T12:06:00.507Z,8.58
2019-02-08T12:07:05.798Z,8.64
2019-02-08T12:08:11.114Z,8.48
2019-02-08T12:09:18.123Z,8.54
2019-02-08T12:10:22.459Z,8.62
2019-02-08T12:11:28.429Z,8.57
2019-02-08T12:12:34.572Z,8.71
2019-02-08T12:13:40.600Z,8.87
2019-02-08T12:14:46.382Z,8.98
2019-02-08T12:15:52.330Z,9.05
2019-02-08T12:16:58.260Z,9.12
2019-02-08T12:18:03.821Z,9.14
2019-02-08T12:19:09.155Z,9.08
2019-02-08T12:20:14.477Z,9.14
2019-02-08T12:21:20.422Z,9.14
2019-02-08T12:22:26.491Z,9.03
2019-02-08T12:23:32.461Z,8.91
2019-02-08T12:24:38.467Z,8.96
2019-02-08T12:25:44.506Z,8.99
2019-02-08T12:26:50.680Z,9.02
2019-02-08T12:27:56.659Z,8.93
2019-02-08T12:29:02.275Z,8.84
2019-02-08T12:30:12.126Z,8.85
2019-02-08T12:31:18.229Z,8.93
2019-02-08T12:32:24.283Z,9.04
2019-02-08T12:33:30.755Z,9.13
2019-02-08T12:34:36.048Z,9.10
2019-02-08T12:35:42.042Z,9.10
2019-02-08T12:36:47.643Z,8.96
2019-02-08T12:37:53.585Z,8.91
2019-02-08T12:38:59.574Z,8.84
2019-02-08T12:40:05.662Z,8.71
2019-02-08T12:41:12.986Z,8.73
2019-02-08T12:42:17.336Z,8.68
2019-02-08T12:43:23.250Z,8.84
2019-02-08T12:44:28.890Z,8.81
2019-02-08T12:45:34.866Z,8.89
2019-02-08T12:46:40.631Z,8.79
2019-02-08T12:47:46.383Z,8.86
2019-02-08T12:48:52.103Z,8.85
2019-02-08T12:49:58.057Z,8.76
2019-02-08T12:51:03.714Z,8.86
2019-02-08T12:52:08.922Z,8.87
2019-02-08T12:53:14.870Z,8.76
2019-02-08T12:54:21.447Z,8.80
2019-02-08T12:55:26.203Z,8.89
2019-02-08T12:56:32.218Z,8.93
2019-02-08T12:57:38.176Z,8.95
2019-02-08T12:58:44.212Z,8.89
2019-02-08T12:59:50.263Z,8.99
2019-02-08T13:00:55.858Z,9.04
2019-02-08T13:02:01.787Z,8.82
2019-02-08T13:03:07.734Z,8.94
2019-02-08T13:04:14.458Z,8.99
2019-02-08T13:05:20.178Z,9.02
2019-02-08T13:06:26.273Z,8.98
2019-02-08T13:07:32.228Z,8.98
2019-02-08T13:08:39.098Z,8.79
2019-02-08T13:09:45.492Z,8.73
2019-02-08T13:10:51.482Z,8.88
2019-02-08T13:11:57.461Z,8.83
2019-02-08T13:13:03.474Z,8.90
2019-02-08T13:14:08.860Z,8.91
2019-02-08T13:15:14.713Z,8.95
2019-02-08T13:16:20.629Z,8.89
2019-02-08T13:17:26.546Z,8.89
2019-02-08T13:18:32.223Z,8.94
2019-02-08T13:19:39.011Z,8.85
2019-02-08T13:20:44.668Z,8.89
2019-02-08T13:21:50.237Z,8.89
2019-02-08T13:22:55.848Z,8.80
2019-02-08T13:24:01.747Z,8.75
2019-02-08T13:25:06.997Z,8.77
2019-02-08T13:26:12.966Z,8.82
2019-02-08T13:27:19.006Z,8.83
2019-02-08T13:28:24.958Z,8.83
2019-02-08T13:29:30.677Z,8.87
2019-02-08T13:30:36.071Z,8.82
2019-02-08T13:31:42.018Z,8.77
2019-02-08T13:32:47.907Z,8.71
2019-02-08T13:33:53.934Z,8.81
2019-02-08T13:35:00.568Z,8.66
2019-02-08T13:36:05.786Z,8.57
2019-02-08T13:37:11.772Z,8.67
2019-02-08T13:38:17.433Z,8.54
2019-02-08T13:39:23.437Z,8.65
2019-02-08T13:40:28.685Z,8.72
2019-02-08T13:41:34.638Z,8.79
2019-02-08T13:42:40.576Z,8.79
2019-02-08T13:43:46.541Z,8.83
2019-02-08T13:44:52.539Z,8.75
2019-02-08T13:45:58.510Z,8.79
2019-02-08T13:47:04.159Z,8.77
2019-02-08T13:48:09.486Z,8.81
2019-02-08T13:49:15.510Z,8.82
2019-02-08T13:50:23.672Z,8.82
2019-02-08T13:51:29.961Z,8.76
2019-02-08T13:52:36.503Z,8.69
2019-02-08T13:53:42.138Z,8.47
2019-02-08T13:54:47.771Z,8.52
2019-02-08T13:55:53.713Z,8.65
2019-02-08T13:57:00.861Z,8.75
2019-02-08T13:58:06.256Z,8.77
2019-02-08T13:59:11.475Z,8.78
2019-02-08T14:00:24.339Z,8.77
2019-02-08T14:01:29.611Z,8.57
2019-02-08T14:02:35.583Z,8.66
2019-02-08T14:03:43.006Z,8.69
2019-02-08T14:04:49.011Z,8.67
2019-02-08T14:05:54.972Z,8.68
2019-02-08T14:07:01.217Z,8.67
2019-02-08T14:08:06.470Z,8.56
2019-02-08T14:09:12.116Z,8.66
2019-02-08T14:10:18.099Z,8.63
2019-02-08T14:11:24.148Z,8.74
2019-02-08T14:12:30.653Z,8.69
2019-02-08T14:13:40.799Z,8.65
2019-02-08T14:14:43.041Z,8.65
2019-02-08T14:15:48.706Z,8.58
2019-02-08T14:16:54.297Z,8.62
2019-02-08T14:18:00.301Z,8.67
2019-02-08T14:19:05.650Z,8.57
2019-02-08T14:20:13.555Z,8.66
2019-02-08T14:21:19.591Z,8.66
2019-02-08T14:22:25.599Z,8.67
2019-02-08T14:23:31.587Z,8.60
2019-02-08T14:24:37.536Z,8.72
2019-02-08T14:25:43.524Z,8.71
2019-02-08T14:26:49.554Z,8.74
2019-02-08T14:27:55.264Z,8.74
2019-02-08T14:29:01.245Z,8.74
2019-02-08T14:30:07.281Z,8.77
2019-02-08T14:31:13.197Z,8.90
2019-02-08T14:32:19.200Z,8.87
2019-02-08T14:33:25.858Z,8.78
2019-02-08T14:34:32.224Z,8.61
2019-02-08T14:35:37.468Z,8.64
2019-02-08T14:36:43.490Z,8.66
2019-02-08T14:37:49.107Z,8.71
2019-02-08T14:38:55.028Z,8.77
2019-02-08T14:40:00.977Z,8.72
2019-02-08T14:41:11.625Z,8.74
2019-02-08T14:42:17.327Z,8.73
2019-02-08T14:43:23.259Z,8.66
2019-02-08T14:44:28.627Z,8.77
2019-02-08T14:45:34.265Z,8.74
2019-02-08T14:46:40.170Z,8.79
2019-02-08T14:47:45.848Z,8.68
2019-02-08T14:48:51.467Z,8.75
2019-02-08T14:49:57.427Z,8.79
2019-02-08T14:51:02.747Z,8.80
2019-02-08T14:52:08.087Z,8.82
2019-02-08T14:53:14.067Z,8.70
2019-02-08T14:54:19.768Z,8.62
2019-02-08T14:55:26.226Z,8.51
2019-02-08T14:56:31.882Z,8.62
2019-02-08T14:57:37.881Z,8.67
2019-02-08T14:58:43.851Z,8.69
2019-02-08T14:59:49.475Z,8.65
2019-02-08T15:00:55.071Z,8.64
2019-02-08T15:02:01.036Z,8.62
2019-02-08T15:03:06.343Z,8.60
2019-02-08T15:04:12.330Z,8.40
2019-02-08T15:05:17.624Z,8.30
2019-02-08T15:06:23.247Z,8.44
2019-02-08T15:07:29.278Z,8.56
2019-02-08T15:08:35.229Z,8.57
2019-02-08T15:09:41.250Z,8.63
2019-02-08T15:10:50.236Z,8.47
2019-02-08T15:11:56.205Z,8.45
2019-02-08T15:13:01.506Z,8.51
2019-02-08T15:14:07.074Z,8.48
2019-02-08T15:15:12.293Z,8.56
2019-02-08T15:16:19.323Z,8.58
2019-02-08T15:17:24.048Z,8.49
2019-02-08T15:18:29.996Z,8.53
2019-02-08T15:19:35.566Z,8.58
2019-02-08T15:20:41.150Z,8.55
2019-02-08T15:21:47.098Z,8.53
2019-02-08T15:22:52.755Z,8.34
2019-02-08T15:23:58.698Z,8.43
2019-02-08T15:25:03.957Z,8.27
2019-02-08T15:26:09.253Z,8.45
2019-02-08T15:27:15.250Z,8.43
2019-02-08T15:28:21.263Z,8.43
2019-02-08T15:29:26.883Z,8.52
2019-02-08T15:30:34.767Z,8.57
2019-02-08T15:31:40.682Z,8.47
2019-02-08T15:32:46.297Z,8.54
2019-02-08T15:33:52.307Z,8.50
2019-02-08T15:34:58.349Z,8.61
2019-02-08T15:36:03.993Z,8.57
2019-02-08T15:37:09.953Z,8.55
2019-02-08T15:38:16.644Z,8.52
2019-02-08T15:39:23.117Z,8.47
2019-02-08T15:40:32.201Z,8.37
2019-02-08T15:41:38.161Z,8.34
2019-02-08T15:42:45.068Z,8.17
2019-02-08T15:43:50.184Z,8.20
2019-02-08T15:44:56.168Z,8.21
2019-02-08T15:46:01.890Z,8.34
2019-02-08T15:47:08.026Z,8.21
2019-02-08T15:48:14.374Z,8.22
2019-02-08T15:49:20.526Z,8.29
2019-02-08T15:50:25.917Z,8.31
2019-02-08T15:51:31.865Z,8.08
2019-02-08T15:52:37.768Z,8.31
2019-02-08T15:53:43.163Z,8.36
2019-02-08T15:54:49.162Z,8.39
2019-02-08T15:55:57.905Z,8.40
2019-02-08T15:57:03.851Z,8.21
2019-02-08T15:58:09.183Z,8.17
2019-02-08T15:59:14.415Z,8.34
2019-02-08T16:00:21.832Z,8.24
2019-02-08T16:01:27.135Z,8.36
2019-02-08T16:02:32.432Z,8.33
2019-02-08T16:03:38.242Z,8.20
2019-02-08T16:04:44.201Z,8.11
2019-02-08T16:05:49.524Z,8.12
2019-02-08T16:06:55.234Z,8.16
2019-02-08T16:08:01.168Z,8.19
2019-02-08T16:09:06.486Z,8.15
2019-02-08T16:10:12.125Z,8.21
2019-02-08T16:11:18.105Z,8.28
2019-02-08T16:12:23.739Z,8.40
2019-02-08T16:13:29.854Z,8.37
2019-02-08T16:14:36.355Z,8.38
2019-02-08T16:15:42.004Z,8.41
2019-02-08T16:16:48.022Z,8.46
2019-02-08T16:17:53.855Z,8.45
2019-02-08T16:18:59.484Z,8.38
2019-02-08T16:20:04.752Z,8.41
2019-02-08T16:21:10.029Z,8.34
2019-02-08T16:22:15.266Z,8.37
2019-02-08T16:23:21.240Z,8.37
2019-02-08T16:24:26.565Z,8.35
2019-02-08T16:25:31.871Z,8.39
2019-02-08T16:26:37.830Z,8.26
2019-02-08T16:27:43.402Z,8.26
2019-02-08T16:28:49.405Z,8.25
2019-02-08T16:29:54.973Z,8.27
2019-02-08T16:31:01.026Z,8.36